Northfield, New Jersey
Current Conditions -  °F | °C
As of 12:54 PM on Friday 21 Nov 2014 (Local Time) from KACY Reporting Station
Clear Clear  
Wind Chill: 27°   Ceiling: Unl
Heat Index: 37°   Visibility: 10mi
Dew Point:   Wind: 18mph
Humidity: 29%   Direction: 300°WNW
Pressure: 30.35"   Gusts: 28mph
Location:  39.37°N, 74.55°W
Report Text: KACY 211754Z 30016G24KT 10SM CLR 03/M14 A3035 RMK AO2 PK WND 29028/1715 SLP278 T00281139 10028 21028 51005
Loading
Personal Weather Stations






























Interactive Weather Map New forecast layout! Learn more

10-Day Weather Forecast

Advertisements
Track Severe Weather on mobile